Time;durP1;ratioP1;P1;durP2;ratioP2;P2;SDS_P1;SDS_P2;PMS_P1;PMS_P2;Temp;Humidity;BMP_temperature;BMP_pressure;BME280_temperature;BME280_humidity;BME280_pressure;Samples;Min_cycle;Max_cycle;Signal;HPM_P1;HPM_P2
2023/09/07 00:00:29;;;;;;;;;;;;;;;16.35;54.65;101260.84;5056762;28;1111;-64
2023/09/07 00:02:55;;;;;;;;;;;;;;;16.92;56.39;101256.69;5057989;28;1982;-64
2023/09/07 00:05:21;;;;;;;;;;;;;;;17.41;56.37;101257.53;5076390;28;1077;-64
2023/09/07 00:07:47;;;;;;;;;;;;;;;16.97;56.51;101246.81;5063388;28;1039;-64
2023/09/07 00:10:13;;;;;;;;;;;;;;;16.81;55.95;101248.63;5076290;28;900;-65
2023/09/07 00:12:39;;;;;;;;;;;;;;;16.74;55.67;101251.59;5076458;28;1253;-64
2023/09/07 00:15:06;;;;;;;;;;;;;;;16.64;55.44;101246.84;5068561;28;1078;-65
2023/09/07 00:17:32;;;;;;;;;;;;;;;16.56;55.20;101247.31;5070945;28;1071;-65
2023/09/07 00:19:58;;;;;;;;;;;;;;;16.52;54.93;101243.44;5068398;28;1051;-66
2023/09/07 00:22:25;;;;;;;;;;;;;;;16.55;54.77;101240.16;5073532;28;1970;-65
2023/09/07 00:24:51;;;;;;;;;;;;;;;16.41;54.81;101239.78;5056541;28;1122;-65
2023/09/07 00:27:16;;;;;;;;;;;;;;;16.37;54.85;101234.00;5069512;28;1083;-66
2023/09/07 00:29:42;;;;;;;;;;;;;;;16.37;54.55;101239.47;5038454;28;1325;-66
2023/09/07 00:32:07;;;;;;;;;;;;;;;17.10;56.51;101241.69;5052927;28;1605;-65
2023/09/07 00:34:33;;;;;;;;;;;;;;;17.27;56.63;101241.50;5047341;28;935;-65
2023/09/07 00:36:59;;;;;;;;;;;;;;;16.92;56.46;101233.91;5062529;28;1170;-68
2023/09/07 00:39:25;;;;;;;;;;;;;;;16.77;56.11;101238.16;5058099;28;1075;-68
2023/09/07 00:41:51;;;;;;;;;;;;;;;16.66;55.67;101235.59;5045002;28;1905;-68
2023/09/07 00:44:16;;;;;;;;;;;;;;;16.68;55.20;101244.41;5068497;28;1210;-70
2023/09/07 00:46:44;;;;;;;;;;;;;;;16.55;55.19;101248.41;5050171;28;1197;-69
2023/09/07 00:49:11;;;;;;;;;;;;;;;16.54;54.80;101249.50;5046223;28;2113;-69
2023/09/07 00:51:36;;;;;;;;;;;;;;;16.47;54.97;101237.94;5060704;28;1091;-69
2023/09/07 00:54:02;;;;;;;;;;;;;;;16.45;54.87;101238.16;5038342;28;1798;-69
2023/09/07 00:56:28;;;;;;;;;;;;;;;16.40;54.95;101238.13;5056205;28;1249;-68
2023/09/07 00:58:54;;;;;;;;;;;;;;;16.38;54.85;101243.03;5058028;28;1583;-68
2023/09/07 01:01:21;;;;;;;;;;;;;;;16.34;54.77;101229.03;5042411;28;1898;-67
2023/09/07 01:03:48;;;;;;;;;;;;;;;16.27;54.85;101231.16;5047327;28;1122;-68
2023/09/07 01:06:22;;;;;;;;;;;;;;;17.02;56.90;101233.94;5061237;28;1593;-67
2023/09/07 01:08:49;;;;;;;;;;;;;;;17.28;56.93;101231.38;5061463;28;1154;-68
2023/09/07 01:11:20;;;;;;;;;;;;;;;16.89;56.76;101223.44;5075835;28;1031;-68
2023/09/07 01:13:46;;;;;;;;;;;;;;;16.74;56.27;101221.38;5055503;28;1206;-68
2023/09/07 01:16:12;;;;;;;;;;;;;;;16.71;55.77;101225.47;5050790;28;1210;-68
2023/09/07 01:18:38;;;;;;;;;;;;;;;16.60;55.49;101226.50;5053921;28;1154;-68
2023/09/07 01:21:09;;;;;;;;;;;;;;;16.58;55.44;101220.44;5044356;28;1902;-68
2023/09/07 01:23:35;;;;;;;;;;;;;;;16.48;55.09;101228.59;5062602;28;1222;-68
2023/09/07 01:26:01;;;;;;;;;;;;;;;16.46;54.92;101226.09;5032853;28;1226;-68
2023/09/07 01:28:27;;;;;;;;;;;;;;;16.46;54.79;101226.09;5064452;28;1613;-67
2023/09/07 01:30:53;;;;;;;;;;;;;;;16.42;54.75;101223.06;5068675;28;1077;-68
2023/09/07 01:33:18;;;;;;;;;;;;;;;16.35;54.62;101230.66;5075616;28;1058;-67
2023/09/07 01:35:44;;;;;;;;;;;;;;;16.33;54.66;101232.84;5064543;28;1154;-68
2023/09/07 01:38:10;;;;;;;;;;;;;;;16.30;54.66;101232.53;5062533;28;1134;-68
2023/09/07 01:40:35;;;;;;;;;;;;;;;16.25;54.72;101227.84;5062434;28;1215;-68
2023/09/07 01:43:01;;;;;;;;;;;;;;;16.34;54.94;101234.53;5074005;28;1994;-68
2023/09/07 01:45:26;;;;;;;;;;;;;;;17.39;57.03;101233.06;5081873;28;1042;-68
2023/09/07 01:47:52;;;;;;;;;;;;;;;17.12;56.83;101232.38;5053473;28;1079;-68
2023/09/07 01:50:18;;;;;;;;;;;;;;;16.75;56.95;101231.28;5075821;28;1067;-69
2023/09/07 01:52:45;;;;;;;;;;;;;;;16.69;56.00;101235.91;5072519;28;1183;-69
2023/09/07 01:55:11;;;;;;;;;;;;;;;16.58;55.96;101232.25;5060025;28;1307;-68
2023/09/07 01:57:36;;;;;;;;;;;;;;;16.56;55.52;101233.59;5068174;28;1059;-69
2023/09/07 02:00:04;;;;;;;;;;;;;;;16.51;55.17;101233.53;5060641;28;1089;-68
2023/09/07 02:02:38;;;;;;;;;;;;;;;16.42;55.34;101231.31;5069564;28;1945;-66
2023/09/07 02:05:04;;;;;;;;;;;;;;;16.47;54.77;101226.94;5075956;28;1091;-67
2023/09/07 02:07:30;;;;;;;;;;;;;;;16.40;54.72;101222.50;5074493;28;1120;-66
2023/09/07 02:09:55;;;;;;;;;;;;;;;16.33;54.68;101226.56;5081259;28;1107;-66
2023/09/07 02:12:21;;;;;;;;;;;;;;;16.77;56.46;101224.44;5063623;28;1190;-67
2023/09/07 02:14:47;;;;;;;;;;;;;;;17.38;56.75;101220.41;5050638;28;1413;-66
2023/09/07 02:17:17;;;;;;;;;;;;;;;16.92;57.13;101226.47;5080262;28;1138;-67
2023/09/07 02:19:44;;;;;;;;;;;;;;;16.83;56.43;101224.44;5060578;28;1110;-67
2023/09/07 02:22:10;;;;;;;;;;;;;;;16.68;56.10;101220.50;5078119;28;1914;-67
2023/09/07 02:24:35;;;;;;;;;;;;;;;16.64;55.63;101216.63;5078883;28;1090;-67
2023/09/07 02:27:01;;;;;;;;;;;;;;;16.53;55.48;101228.63;5078525;28;1054;-67
2023/09/07 02:29:27;;;;;;;;;;;;;;;16.53;55.14;101217.66;5065282;28;1082;-67
2023/09/07 02:31:52;;;;;;;;;;;;;;;16.47;55.07;101214.03;5048594;28;1158;-67
2023/09/07 02:34:19;;;;;;;;;;;;;;;16.38;55.33;101212.84;5077677;28;1120;-67
2023/09/07 02:36:44;;;;;;;;;;;;;;;16.34;55.15;101211.72;5047936;28;1221;-66
2023/09/07 02:39:11;;;;;;;;;;;;;;;16.36;54.98;101215.88;5071936;28;1143;-66
2023/09/07 02:41:38;;;;;;;;;;;;;;;16.34;54.81;101211.72;5040613;28;1974;-69
2023/09/07 02:44:04;;;;;;;;;;;;;;;16.34;54.72;101206.22;5070088;28;1194;-68
2023/09/07 02:46:29;;;;;;;;;;;;;;;17.19;57.12;101213.72;5059941;28;1365;-65
2023/09/07 02:48:59;;;;;;;;;;;;;;;17.20;57.11;101207.94;5072885;28;1069;-66
2023/09/07 02:51:25;;;;;;;;;;;;;;;16.90;56.65;101209.44;5050962;28;1334;-67
2023/09/07 02:53:53;;;;;;;;;;;;;;;16.69;56.57;101213.09;5055846;28;1158;-68
2023/09/07 02:56:19;;;;;;;;;;;;;;;16.68;55.88;101209.53;5049563;28;2459;-60
2023/09/07 02:58:45;;;;;;;;;;;;;;;16.61;55.63;101211.69;5040488;28;1685;-63
2023/09/07 03:01:13;;;;;;;;;;;;;;;16.54;55.35;101219.31;5045342;28;2121;-63
2023/09/07 03:03:41;;;;;;;;;;;;;;;16.50;55.18;101215.44;5045691;28;2018;-63
2023/09/07 03:06:08;;;;;;;;;;;;;;;16.43;55.12;101218.41;5043159;28;1939;-63
2023/09/07 03:08:34;;;;;;;;;;;;;;;16.37;55.29;101217.53;5072188;28;2183;-63
2023/09/07 03:11:04;;;;;;;;;;;;;;;16.37;55.11;101225.75;5057828;28;1816;-63
2023/09/07 03:13:30;;;;;;;;;;;;;;;16.36;55.01;101224.09;5052353;28;2166;-63
2023/09/07 03:15:56;;;;;;;;;;;;;;;16.88;57.02;101230.84;5051775;28;1299;-63
2023/09/07 03:18:22;;;;;;;;;;;;;;;17.27;57.35;101235.19;5059226;28;1197;-64
2023/09/07 03:20:47;;;;;;;;;;;;;;;16.88;56.98;101241.81;5077276;28;1909;-63
2023/09/07 03:23:13;;;;;;;;;;;;;;;16.75;56.51;101234.84;5058613;28;1399;-63
2023/09/07 03:25:39;;;;;;;;;;;;;;;16.65;55.98;101223.78;5077290;28;1292;-63
2023/09/07 03:28:05;;;;;;;;;;;;;;;16.58;55.86;101231.44;5057182;28;1032;-64
2023/09/07 03:30:33;;;;;;;;;;;;;;;16.53;55.56;101223.97;5043175;28;1107;-63
2023/09/07 03:32:58;;;;;;;;;;;;;;;16.49;55.55;101235.75;5058709;28;1193;-63
2023/09/07 03:35:24;;;;;;;;;;;;;;;16.42;55.13;101234.06;5057654;28;2060;-62
2023/09/07 03:37:50;;;;;;;;;;;;;;;16.38;55.18;101235.66;5058860;28;1309;-63
2023/09/07 03:40:15;;;;;;;;;;;;;;;16.37;54.99;101239.47;5074621;28;1011;-64
2023/09/07 03:42:43;;;;;;;;;;;;;;;16.76;56.67;101247.50;5070984;28;2532;-62
2023/09/07 03:45:09;;;;;;;;;;;;;;;17.53;57.40;101230.66;5045517;28;1323;-63
2023/09/07 03:47:35;;;;;;;;;;;;;;;17.04;57.47;101237.28;5057849;28;1222;-64
2023/09/07 03:50:01;;;;;;;;;;;;;;;17.01;57.54;101240.56;5057735;28;1511;-58
2023/09/07 03:52:29;;;;;;;;;;;;;;;16.85;56.74;101233.28;5047118;28;1186;-61
2023/09/07 03:54:57;;;;;;;;;;;;;;;16.75;56.35;101232.09;5058356;28;1335;-60
2023/09/07 03:57:24;;;;;;;;;;;;;;;16.67;56.08;101232.59;5043407;28;1179;-62
2023/09/07 03:59:49;;;;;;;;;;;;;;;16.59;55.88;101244.91;5044263;28;1516;-60
2023/09/07 04:02:17;;;;;;;;;;;;;;;16.58;55.53;101237.75;5055257;28;1980;-61
2023/09/07 04:04:42;;;;;;;;;;;;;;;16.65;55.63;101233.94;5066426;28;1179;-60
2023/09/07 04:07:09;;;;;;;;;;;;;;;16.53;55.55;101248.66;5055050;28;1103;-62
2023/09/07 04:09:35;;;;;;;;;;;;;;;16.54;55.13;101244.03;5064486;28;1163;-61
2023/09/07 04:12:00;;;;;;;;;;;;;;;16.42;55.24;101234.06;5044101;28;1951;-62
2023/09/07 04:14:28;;;;;;;;;;;;;;;16.39;55.37;101241.97;5048800;28;1591;-57
2023/09/07 04:16:53;;;;;;;;;;;;;;;16.38;55.27;101235.66;5055756;28;1146;-62
2023/09/07 04:19:19;;;;;;;;;;;;;;;16.84;57.46;101237.09;5066453;28;1098;-60
2023/09/07 04:21:45;;;;;;;;;;;;;;;17.51;58.58;101226.50;5058085;28;1918;-57
2023/09/07 04:24:10;;;;;;;;;;;;;;;17.02;58.09;101247.69;5057741;28;925;-61
2023/09/07 04:26:37;;;;;;;;;;;;;;;16.90;57.22;101241.56;5052002;28;1278;-64
2023/09/07 04:29:03;;;;;;;;;;;;;;;16.73;56.58;101252.66;5038209;28;1126;-60
2023/09/07 04:31:29;;;;;;;;;;;;;;;16.70;56.18;101251.28;5038197;28;1174;-61
2023/09/07 04:33:54;;;;;;;;;;;;;;;16.60;55.80;101256.69;5055895;28;1078;-59
2023/09/07 04:36:20;;;;;;;;;;;;;;;16.57;55.50;101251.72;5046903;28;949;-63
2023/09/07 04:38:46;;;;;;;;;;;;;;;16.50;55.52;101254.69;5040865;28;1145;-62
2023/09/07 04:41:12;;;;;;;;;;;;;;;16.47;55.26;101254.41;5055382;28;2330;-62
2023/09/07 04:43:45;;;;;;;;;;;;;;;17.05;56.96;101254.56;5055432;28;1166;-62
2023/09/07 04:46:13;;;;;;;;;;;;;;;16.42;55.66;101250.53;5056408;28;1111;-62
2023/09/07 04:48:40;;;;;;;;;;;;;;;16.34;53.42;101256.47;5055315;28;1036;-61
2023/09/07 04:51:07;;;;;;;;;;;;;;;16.29;52.09;101259.16;5038387;28;1335;-61
2023/09/07 04:53:34;;;;;;;;;;;;;;;16.76;54.20;101252.97;5037773;28;1112;-60
2023/09/07 04:56:01;;;;;;;;;;;;;;;16.58;52.75;101267.13;5049057;28;1330;-62
2023/09/07 04:58:27;;;;;;;;;;;;;;;16.45;51.36;101262.06;5061085;28;1185;-60
2023/09/07 05:00:52;;;;;;;;;;;;;;;16.62;51.90;101264.66;5055624;28;1913;-62
2023/09/07 05:03:18;;;;;;;;;;;;;;;16.96;53.54;101259.75;5069061;28;1103;-61
2023/09/07 05:05:43;;;;;;;;;;;;;;;16.68;52.11;101272.69;5067104;28;1028;-59
2023/09/07 05:08:09;;;;;;;;;;;;;;;16.58;50.90;101267.13;5075220;28;1097;-55
2023/09/07 05:10:35;;;;;;;;;;;;;;;16.79;50.85;101261.78;5073663;28;1079;-55
2023/09/07 05:13:01;;;;;;;;;;;;;;;17.00;51.74;101257.28;5056423;28;2231;-59
2023/09/07 05:15:26;;;;;;;;;;;;;;;16.74;50.94;101266.13;5048511;28;1201;-59
2023/09/07 05:17:52;;;;;;;;;;;;;;;16.70;50.13;101270.50;5057836;28;1159;-57
2023/09/07 05:20:18;;;;;;;;;;;;;;;16.59;49.28;101268.75;5037728;28;1124;-60
2023/09/07 05:22:43;;;;;;;;;;;;;;;16.66;48.44;101274.88;5058843;28;1913;-61
2023/09/07 05:25:09;;;;;;;;;;;;;;;17.52;50.71;101274.91;5075661;28;1256;-60
2023/09/07 05:27:35;;;;;;;;;;;;;;;16.93;51.04;101266.59;5043936;28;1408;-62
2023/09/07 05:30:02;;;;;;;;;;;;;;;16.88;49.73;101265.69;5046500;28;1211;-57
2023/09/07 05:32:28;;;;;;;;;;;;;;;16.74;49.32;101273.56;5050644;28;1052;-60
2023/09/07 05:34:54;;;;;;;;;;;;;;;16.71;48.95;101272.16;5057504;28;1135;-55
2023/09/07 05:37:19;;;;;;;;;;;;;;;16.78;48.12;101274.69;5057500;28;1171;-60
2023/09/07 05:39:45;;;;;;;;;;;;;;;17.30;50.29;101278.63;5075416;28;1062;-59
2023/09/07 05:42:12;;;;;;;;;;;;;;;16.91;49.77;101278.94;5034870;28;2539;-61
2023/09/07 05:44:38;;;;;;;;;;;;;;;16.95;49.16;101271.81;5075077;28;1158;-63
2023/09/07 05:47:04;;;;;;;;;;;;;;;17.49;50.66;101287.28;5052751;28;1437;-60
2023/09/07 05:49:29;;;;;;;;;;;;;;;17.15;50.13;101287.59;5048753;28;1117;-59
2023/09/07 05:51:55;;;;;;;;;;;;;;;17.01;49.44;101287.25;5049314;28;1344;-63
2023/09/07 05:54:21;;;;;;;;;;;;;;;17.00;48.74;101285.59;5059167;28;1395;-59
2023/09/07 05:56:46;;;;;;;;;;;;;;;16.87;48.27;101297.00;5079061;28;1118;-60
2023/09/07 05:59:12;;;;;;;;;;;;;;;16.80;48.28;101288.97;5058526;28;1039;-57
2023/09/07 06:01:38;;;;;;;;;;;;;;;16.79;47.71;101295.56;5057321;28;1976;-57
2023/09/07 06:04:04;;;;;;;;;;;;;;;17.53;49.44;101293.88;5043551;28;1303;-59
2023/09/07 06:06:30;;;;;;;;;;;;;;;17.19;49.43;101301.66;5040964;28;1735;-60
2023/09/07 06:08:55;;;;;;;;;;;;;;;16.96;48.77;101300.94;5051088;28;1111;-59
2023/09/07 06:11:21;;;;;;;;;;;;;;;16.98;48.17;101301.50;5055866;28;1847;-60
2023/09/07 06:13:47;;;;;;;;;;;;;;;16.91;47.82;101295.41;5040862;28;1114;-58
2023/09/07 06:16:13;;;;;;;;;;;;;;;16.79;47.89;101294.72;5040772;28;1214;-58
2023/09/07 06:18:38;;;;;;;;;;;;;;;17.69;48.99;101297.53;5055965;28;1258;-57
2023/09/07 06:21:05;;;;;;;;;;;;;;;17.20;49.15;101311.56;5043081;28;1910;-62
2023/09/07 06:23:31;;;;;;;;;;;;;;;17.12;48.44;101304.63;5050537;28;1247;-60
2023/09/07 06:25:57;;;;;;;;;;;;;;;17.19;48.60;101307.16;5070232;28;1356;-59
2023/09/07 06:28:23;;;;;;;;;;;;;;;17.52;49.79;101313.41;5054906;28;1406;-61
2023/09/07 06:30:48;;;;;;;;;;;;;;;17.19;49.67;101312.66;5066640;28;1177;-60
2023/09/07 06:33:15;;;;;;;;;;;;;;;17.22;48.70;101315.72;5053267;28;1362;-62
2023/09/07 06:35:41;;;;;;;;;;;;;;;17.13;48.04;101313.72;5049501;28;1583;-61
2023/09/07 06:38:07;;;;;;;;;;;;;;;17.08;47.60;101325.47;5065089;28;1127;-59
2023/09/07 06:40:33;;;;;;;;;;;;;;;17.03;47.46;101331.78;5046857;28;1178;-56
2023/09/07 06:42:58;;;;;;;;;;;;;;;17.04;47.05;101329.84;5059801;28;2593;-60
2023/09/07 06:45:25;;;;;;;;;;;;;;;17.60;48.87;101332.97;5045323;28;1236;-59
2023/09/07 06:47:51;;;;;;;;;;;;;;;17.24;48.84;101331.94;5048107;28;1238;-59
2023/09/07 06:50:18;;;;;;;;;;;;;;;17.08;48.45;101320.84;5057706;28;1633;-65
2023/09/07 06:52:43;;;;;;;;;;;;;;;17.15;47.73;101320.59;5061808;28;1753;-65
2023/09/07 06:55:10;;;;;;;;;;;;;;;17.01;47.64;101331.22;5059597;28;1249;-61
2023/09/07 06:57:36;;;;;;;;;;;;;;;17.84;48.38;101331.69;5078357;28;1038;-64
2023/09/07 07:00:05;;;;;;;;;;;;;;;17.41;48.81;101329.00;5069735;28;1087;-63
2023/09/07 07:02:31;;;;;;;;;;;;;;;17.26;48.44;101313.25;5054416;28;1905;-60
2023/09/07 07:04:56;;;;;;;;;;;;;;;17.16;48.15;101321.44;5067929;28;1404;-63
2023/09/07 07:07:22;;;;;;;;;;;;;;;17.07;47.77;101316.41;5056195;28;1225;-62
2023/09/07 07:09:48;;;;;;;;;;;;;;;17.08;47.62;101320.84;5053609;28;1322;-62
2023/09/07 07:12:13;;;;;;;;;;;;;;;17.12;47.42;101314.81;5052011;28;1810;-60
2023/09/07 07:14:40;;;;;;;;;;;;;;;17.04;47.52;101325.19;5072105;28;920;-67
2023/09/07 07:17:06;;;;;;;;;;;;;;;17.01;47.10;101316.63;5046434;28;1186;-67
2023/09/07 07:19:33;;;;;;;;;;;;;;;17.08;46.73;101320.84;5059384;28;1363;-60
2023/09/07 07:22:00;;;;;;;;;;;;;;;16.99;47.14;101316.09;5059718;28;1914;-59
2023/09/07 07:24:26;;;;;;;;;;;;;;;16.97;47.07;101312.75;5052842;28;1620;-60
2023/09/07 07:26:51;;;;;;;;;;;;;;;17.01;46.86;101311.13;5058343;28;1328;-60
2023/09/07 07:29:17;;;;;;;;;;;;;;;16.98;47.09;101308.94;5039526;28;1677;-64
2023/09/07 07:31:43;;;;;;;;;;;;;;;16.96;46.79;101300.94;5037357;28;1353;-66
2023/09/07 07:34:09;;;;;;;;;;;;;;;17.02;46.69;101297.13;5059289;28;1213;-60
2023/09/07 07:36:35;;;;;;;;;;;;;;;17.02;46.75;101310.06;5050437;28;1249;-58
2023/09/07 07:39:03;;;;;;;;;;;;;;;16.98;46.94;101304.25;5057814;28;1115;-60
2023/09/07 07:41:29;;;;;;;;;;;;;;;17.00;46.80;101296.59;5054894;28;1939;-56
2023/09/07 07:43:55;;;;;;;;;;;;;;;16.95;46.97;101298.47;5044802;28;1104;-61
2023/09/07 07:46:20;;;;;;;;;;;;;;;16.93;47.14;101302.31;5047130;28;1320;-60
2023/09/07 07:48:46;;;;;;;;;;;;;;;16.96;46.97;101309.19;5048643;28;1173;-59
2023/09/07 07:51:12;;;;;;;;;;;;;;;17.02;46.86;101302.63;5064888;28;1058;-60
2023/09/07 07:53:39;;;;;;;;;;;;;;;16.88;47.00;101298.66;5055961;28;1151;-58
2023/09/07 07:56:05;;;;;;;;;;;;;;;16.95;46.84;101304.78;5051452;28;1419;-61
2023/09/07 07:58:31;;;;;;;;;;;;;;;16.88;46.93;101299.50;5043755;28;1179;-66
2023/09/07 08:00:58;;;;;;;;;;;;;;;16.96;46.96;101303.69;5076708;28;832;-61
2023/09/07 08:03:27;;;;;;;;;;;;;;;16.96;46.82;101306.44;5072667;28;1117;-60
2023/09/07 08:05:54;;;;;;;;;;;;;;;16.87;47.10;101297.00;5039141;28;1332;-61
2023/09/07 08:08:20;;;;;;;;;;;;;;;16.98;46.70;101292.44;5043970;28;1123;-64
2023/09/07 08:10:46;;;;;;;;;;;;;;;16.91;46.89;101292.66;5045920;28;1242;-64
2023/09/07 08:13:12;;;;;;;;;;;;;;;16.90;46.85;101302.00;5055422;28;2634;-64
2023/09/07 08:15:37;;;;;;;;;;;;;;;16.91;46.89;101290.75;5068011;28;1182;-68
2023/09/07 08:18:05;;;;;;;;;;;;;;;16.89;46.89;101295.69;5058664;28;1134;-65
2023/09/07 08:20:31;;;;;;;;;;;;;;;17.01;46.56;101280.91;5047634;28;1355;-66
2023/09/07 08:22:58;;;;;;;;;;;;;;;16.95;46.68;101296.53;5056475;28;1979;-60
2023/09/07 08:25:25;;;;;;;;;;;;;;;16.87;47.12;101291.50;5050773;28;1317;-60
2023/09/07 08:27:53;;;;;;;;;;;;;;;16.90;47.12;101294.59;5048695;28;1024;-60
2023/09/07 08:30:22;;;;;;;;;;;;;;;16.89;47.02;101283.88;5059257;28;1174;-59
2023/09/07 08:32:48;;;;;;;;;;;;;;;16.97;46.79;101285.28;5076226;28;1018;-59
2023/09/07 08:35:13;;;;;;;;;;;;;;;16.86;46.78;101289.88;5053589;28;1126;-66
2023/09/07 08:37:39;;;;;;;;;;;;;;;16.84;47.10;101287.34;5070023;28;865;-59
2023/09/07 08:40:07;;;;;;;;;;;;;;;16.87;46.92;101275.03;5055411;28;1337;-61
2023/09/07 08:42:33;;;;;;;;;;;;;;;16.86;46.99;101284.38;5066837;28;1902;-62
2023/09/07 08:44:59;;;;;;;;;;;;;;;16.85;47.10;101283.53;5047833;28;988;-59
2023/09/07 08:47:24;;;;;;;;;;;;;;;16.88;47.00;101280.28;5069171;28;964;-68
2023/09/07 08:49:50;;;;;;;;;;;;;;;16.81;47.24;101287.88;5052545;28;961;-61
2023/09/07 08:52:16;;;;;;;;;;;;;;;16.98;46.81;101282.28;5037858;28;1163;-63
2023/09/07 08:54:42;;;;;;;;;;;;;;;16.86;46.86;101278.88;5042105;28;956;-61
2023/09/07 08:57:07;;;;;;;;;;;;;;;16.95;46.60;101291.06;5035045;28;1137;-64
2023/09/07 08:59:33;;;;;;;;;;;;;;;16.88;46.88;101284.94;5045451;28;1149;-63
2023/09/07 09:01:58;;;;;;;;;;;;;;;16.91;46.51;101265.19;5053826;28;1972;-64
2023/09/07 09:04:25;;;;;;;;;;;;;;;16.91;46.70;101266.03;5046486;28;1027;-64
2023/09/07 09:06:52;;;;;;;;;;;;;;;16.86;46.68;101273.38;5047545;28;1044;-63
2023/09/07 09:09:24;;;;;;;;;;;;;;;16.89;46.97;101273.69;5049468;28;1091;-59
2023/09/07 09:11:50;;;;;;;;;;;;;;;16.89;46.83;101289.38;5048737;28;2367;-64
2023/09/07 09:14:18;;;;;;;;;;;;;;;16.96;46.48;101278.97;5052023;28;840;-63
2023/09/07 09:16:50;;;;;;;;;;;;;;;17.47;48.09;101272.13;5055627;28;1067;-65
2023/09/07 09:19:16;;;;;;;;;;;;;;;17.23;48.28;101267.06;5044329;28;1178;-66
2023/09/07 09:21:41;;;;;;;;;;;;;;;17.15;48.03;101270.31;5039435;28;1991;-68
2023/09/07 09:24:09;;;;;;;;;;;;;;;17.13;47.84;101261.50;5040482;28;1040;-64
2023/09/07 09:26:36;;;;;;;;;;;;;;;17.12;47.64;101270.84;5036690;28;1070;-62
2023/09/07 09:29:01;;;;;;;;;;;;;;;17.07;47.65;101261.47;5051925;28;1036;-63
2023/09/07 09:31:27;;;;;;;;;;;;;;;17.10;47.26;101255.44;5040946;28;1058;-63
2023/09/07 09:33:53;;;;;;;;;;;;;;;17.13;47.07;101256.81;5048884;28;974;-57
2023/09/07 09:36:18;;;;;;;;;;;;;;;17.15;47.25;101270.31;5050702;28;1026;-61
2023/09/07 09:38:47;;;;;;;;;;;;;;;17.12;47.10;101268.09;5055868;28;844;-59
2023/09/07 09:41:12;;;;;;;;;;;;;;;17.06;47.10;101257.06;5041412;28;2296;-58
2023/09/07 09:43:38;;;;;;;;;;;;;;;17.06;46.90;101257.06;5058299;28;1018;-61
2023/09/07 09:46:03;;;;;;;;;;;;;;;17.04;47.26;101259.25;5058931;28;1030;-58
2023/09/07 09:48:29;;;;;;;;;;;;;;;17.01;47.17;101257.03;5044045;28;1042;-60
2023/09/07 09:50:54;;;;;;;;;;;;;;;17.04;47.03;101252.91;5057950;28;980;-59
2023/09/07 09:53:20;;;;;;;;;;;;;;;17.09;46.78;101256.53;5026249;28;1208;-66
2023/09/07 09:55:49;;;;;;;;;;;;;;;17.05;47.13;101260.06;5028782;28;1520;-61
2023/09/07 09:58:14;;;;;;;;;;;;;;;17.03;47.25;101246.59;5033330;28;1068;-65
2023/09/07 10:00:41;;;;;;;;;;;;;;;17.04;47.15;101247.41;5031523;28;1239;-59
2023/09/07 10:03:07;;;;;;;;;;;;;;;17.02;47.09;101250.44;5037602;28;1968;-59
2023/09/07 10:05:34;;;;;;;;;;;;;;;17.07;47.14;101246.91;5032401;28;1301;-60
2023/09/07 10:08:01;;;;;;;;;;;;;;;17.14;47.00;101254.91;5022163;28;1131;-60
2023/09/07 10:10:28;;;;;;;;;;;;;;;17.08;47.14;101257.63;5034591;28;1091;-66
2023/09/07 10:12:53;;;;;;;;;;;;;;;17.14;47.02;101241.16;5023579;28;2546;-63
2023/09/07 10:15:21;;;;;;;;;;;;;;;17.06;47.26;101245.25;5036781;28;1362;-66
2023/09/07 10:17:50;;;;;;;;;;;;;;;17.12;47.26;101248.84;5023759;28;1154;-61
2023/09/07 10:20:19;;;;;;;;;;;;;;;17.07;47.15;101253.22;5020162;28;1027;-63
2023/09/07 10:22:45;;;;;;;;;;;;;;;17.12;47.16;101246.91;5038951;28;1976;-63
2023/09/07 10:25:20;;;;;;;;;;;;;;;17.19;47.21;101246.69;5027986;28;1095;-62
2023/09/07 10:27:46;;;;;;;;;;;;;;;17.12;47.33;101229.63;5028461;28;948;-61
2023/09/07 10:30:23;;;;;;;;;;;;;;;17.09;47.14;101240.03;5025090;28;1050;-65
2023/09/07 10:32:49;;;;;;;;;;;;;;;17.10;47.29;101232.63;5038465;28;1182;-62
2023/09/07 10:35:15;;;;;;;;;;;;;;;17.07;47.35;101235.91;5031193;28;1298;-65
2023/09/07 10:37:41;;;;;;;;;;;;;;;17.14;46.95;101236.50;5033130;28;1277;-62
2023/09/07 10:40:11;;;;;;;;;;;;;;;17.13;47.13;101234.03;5025103;28;1307;-65
2023/09/07 10:42:37;;;;;;;;;;;;;;;17.17;46.89;101227.72;5030443;28;1971;-65
2023/09/07 10:45:10;;;;;;;;;;;;;;;17.13;47.12;101234.84;5022373;28;1117;-63
2023/09/07 10:47:35;;;;;;;;;;;;;;;17.24;46.78;101246.72;5031994;28;1078;-66
2023/09/07 10:50:03;;;;;;;;;;;;;;;17.10;47.15;101240.88;5026805;28;1067;-61
2023/09/07 10:52:28;;;;;;;;;;;;;;;17.18;47.00;101243.13;5044762;28;1429;-68
2023/09/07 10:54:57;;;;;;;;;;;;;;;17.16;47.00;101247.22;5065381;28;1146;-67
2023/09/07 10:57:23;;;;;;;;;;;;;;;17.20;46.85;101234.63;5059148;28;944;-64
2023/09/07 10:59:48;;;;;;;;;;;;;;;17.19;46.92;101231.03;5062832;28;1023;-63
2023/09/07 11:02:15;;;;;;;;;;;;;;;17.22;46.95;101232.41;5074699;28;1980;-66
2023/09/07 11:04:40;;;;;;;;;;;;;;;17.10;47.27;101238.13;5077973;28;1158;-66
2023/09/07 11:07:06;;;;;;;;;;;;;;;17.18;47.04;101225.78;5060576;28;1143;-66
2023/09/07 11:09:31;;;;;;;;;;;;;;;17.23;46.96;101234.06;5073118;28;1115;-60
2023/09/07 11:11:57;;;;;;;;;;;;;;;17.15;47.09;101229.09;5068671;28;1923;-64
2023/09/07 11:14:28;;;;;;;;;;;;;;;17.13;47.52;101228.53;5076535;28;1075;-61
2023/09/07 11:16:55;;;;;;;;;;;;;;;17.15;47.03;101221.66;5055013;28;1088;-59
2023/09/07 11:19:21;;;;;;;;;;;;;;;17.23;46.73;101220.34;5057904;28;1004;-65
2023/09/07 11:21:47;;;;;;;;;;;;;;;17.20;47.05;101229.13;5074735;28;1905;-64
2023/09/07 11:24:12;;;;;;;;;;;;;;;17.14;47.23;101227.41;5077973;28;1382;-66
2023/09/07 11:26:42;;;;;;;;;;;;;;;17.11;47.17;101234.28;5056878;28;1312;-65
2023/09/07 11:29:08;;;;;;;;;;;;;;;17.23;46.98;101212.91;5066202;28;1523;-66
2023/09/07 11:31:33;;;;;;;;;;;;;;;17.24;47.04;101227.50;5066946;28;1205;-63
2023/09/07 11:33:59;;;;;;;;;;;;;;;17.26;46.69;101217.88;5062742;28;1016;-63
2023/09/07 11:36:25;;;;;;;;;;;;;;;17.22;46.81;101221.41;5057499;28;1127;-60
2023/09/07 11:38:50;;;;;;;;;;;;;;;17.21;47.06;101219.78;5060637;28;1122;-62
2023/09/07 11:41:16;;;;;;;;;;;;;;;17.19;47.28;101228.28;5074718;28;1989;-65
2023/09/07 11:43:42;;;;;;;;;;;;;;;17.20;47.02;101234.63;5071014;28;1071;-67
2023/09/07 11:46:07;;;;;;;;;;;;;;;17.20;47.08;101229.94;5057235;28;976;-66
2023/09/07 11:48:34;;;;;;;;;;;;;;;17.22;47.32;101238.75;5057318;28;1253;-62
2023/09/07 11:50:59;;;;;;;;;;;;;;;17.24;46.99;101233.00;5068192;28;1304;-60
2023/09/07 11:53:25;;;;;;;;;;;;;;;17.26;46.75;101228.88;5072800;28;1126;-66
2023/09/07 11:55:50;;;;;;;;;;;;;;;17.19;47.16;101216.47;5063545;28;1035;-65
2023/09/07 11:58:16;;;;;;;;;;;;;;;17.22;47.17;101232.41;5068806;28;1229;-62
2023/09/07 12:00:42;;;;;;;;;;;;;;;17.20;47.20;101237.38;5056902;28;1138;-60
2023/09/07 12:03:07;;;;;;;;;;;;;;;17.21;47.26;101236.28;5069692;28;2216;-64
2023/09/07 12:05:33;;;;;;;;;;;;;;;17.29;47.00;101233.00;5062124;28;1194;-58
2023/09/07 12:07:58;;;;;;;;;;;;;;;17.20;47.01;101235.44;5059592;28;1099;-64
2023/09/07 12:10:24;;;;;;;;;;;;;;;17.24;47.11;101241.22;5076320;28;1145;-67
2023/09/07 12:12:49;;;;;;;;;;;;;;;17.28;47.07;101234.13;5068569;28;2520;-62
2023/09/07 12:15:14;;;;;;;;;;;;;;;17.17;46.95;101235.16;5069241;28;1107;-64
2023/09/07 12:17:40;;;;;;;;;;;;;;;17.18;46.89;101225.78;5068092;28;1066;-61
2023/09/07 12:20:09;;;;;;;;;;;;;;;17.20;46.95;101229.94;5069888;28;1412;-59
2023/09/07 12:22:37;;;;;;;;;;;;;;;17.21;46.71;101226.09;5064461;28;1909;-65
2023/09/07 12:25:04;;;;;;;;;;;;;;;17.22;46.59;101227.75;5065828;28;1052;-67
2023/09/07 12:27:29;;;;;;;;;;;;;;;17.21;46.76;101230.78;5068723;28;1519;-66
2023/09/07 12:29:55;;;;;;;;;;;;;;;17.22;46.69;101236.00;5066041;28;1095;-60
2023/09/07 12:32:20;;;;;;;;;;;;;;;17.21;46.93;101228.84;5072688;28;1399;-57
2023/09/07 12:34:46;;;;;;;;;;;;;;;17.23;46.83;101220.34;5076164;28;1066;-65
2023/09/07 12:37:11;;;;;;;;;;;;;;;17.20;46.65;101218.94;5072973;28;1063;-58
2023/09/07 12:39:37;;;;;;;;;;;;;;;17.25;46.77;101215.38;5070754;28;847;-64
2023/09/07 12:42:03;;;;;;;;;;;;;;;17.20;46.94;101220.88;5068212;28;2301;-66